PWSweather.com
Personal Weather Stations
Station Observations
SPARKSRC
St. Petersburg, FL 33716

St. Petersburg, FL 33716

Lat: 27.876101, Lon: -82.657194

Elevation: 13

Station Type: Zephyr PWS-1000TD

High Low Average
Temperature 86.4°F30.2°F 70.0°F21.1°F 75.6°F24.2°F
Dew Point 75.0°F23.9°F 66.3°F19.1°F 69.2°F20.7°F
Winds 21.3 mph WSW34.3 mph WSW Calm Calm 6.2 mph 10.0 mph
Wind Gusts 38.0 mph61.2 mph -- 10.6 mph17.1 mph
Humidity 90% 61% 81%
Pressure 29.76 in1007.80 in 29.67 in1004.70 in -
Precipitation 13.99 in355.30 in - -
Hour Temp Dew Point Humidity Winds Wind Gusts Pressure Precip Precip Rate Daily Precip Total
12:00 AM 72.7°F22.6°C 67.6°F19.8°C 84% 3.8 mph S6.1 kmh S 6.9 mph11.1 kmh 29.72 in1006.4 mb 0.00 in0.0 mm 0.00 in0.0 mm 0.04 in1.0 mm
12:05 AM 72.9°F22.7°C 67.4°F19.7°C 83% 2.2 mph S3.5 kmh S 6.0 mph9.7 kmh 29.72 in1006.4 mb 0.00 in0.0 mm 0.00 in0.0 mm 0.00 in0.0 mm
12:10 AM 73.2°F22.9°C 67.4°F19.7°C 82% 2.2 mph SSE3.5 kmh SSE 5.4 mph8.7 kmh 29.71 in1006.1 mb 0.00 in0.0 mm 0.00 in0.0 mm 0.00 in0.0 mm
12:15 AM 73.4°F23.0°C 67.6°F19.8°C 82% 3.1 mph SSE5.0 kmh SSE 5.4 mph8.7 kmh 29.72 in1006.4 mb 0.00 in0.0 mm 0.00 in0.0 mm 0.00 in0.0 mm
12:20 AM 73.0°F22.8°C 67.3°F19.6°C 82% 3.1 mph S5.0 kmh S 5.4 mph8.7 kmh 29.72 in1006.4 mb 0.00 in0.0 mm 0.00 in0.0 mm 0.00 in0.0 mm
12:25 AM 72.9°F22.7°C 67.4°F19.7°C 83% 3.1 mph S5.0 kmh S 4.5 mph7.2 kmh 29.72 in1006.4 mb 0.00 in0.0 mm 0.00 in0.0 mm 0.00 in0.0 mm
12:30 AM 72.5°F22.5°C 67.4°F19.7°C 84% 3.1 mph S5.0 kmh S 5.4 mph8.7 kmh 29.72 in1006.4 mb 0.00 in0.0 mm 0.00 in0.0 mm 0.00 in0.0 mm
12:35 AM 72.5°F22.5°C 67.4°F19.7°C 84% 2.2 mph S3.5 kmh S 5.4 mph8.7 kmh 29.70 in1005.8 mb 0.00 in0.0 mm 0.00 in0.0 mm 0.00 in0.0 mm
12:40 AM 72.7°F22.6°C 67.6°F19.8°C 84% 2.2 mph S3.5 kmh S 5.4 mph8.7 kmh 29.70 in1005.8 mb 0.00 in0.0 mm 0.00 in0.0 mm 0.00 in0.0 mm
12:45 AM 72.9°F22.7°C 67.8°F19.9°C 84% 1.6 mph S2.6 kmh S 4.5 mph7.2 kmh 29.70 in1005.8 mb 0.00 in0.0 mm 0.00 in0.0 mm 0.00 in0.0 mm
12:50 AM 72.9°F22.7°C 67.8°F19.9°C 84% 2.2 mph S3.5 kmh S 3.8 mph6.1 kmh 29.70 in1005.8 mb 0.00 in0.0 mm 0.00 in0.0 mm 0.00 in0.0 mm
12:55 AM 72.7°F22.6°C 67.6°F19.8°C 84% 1.6 mph S2.6 kmh S 3.8 mph6.1 kmh 29.71 in1006.1 mb 0.00 in0.0 mm 0.00 in0.0 mm 0.00 in0.0 mm
01:00 AM 72.7°F22.6°C 67.6°F19.8°C 84% 2.2 mph S3.5 kmh S 3.8 mph6.1 kmh 29.70 in1005.8 mb 0.00 in0.0 mm 0.00 in0.0 mm 0.00 in0.0 mm
01:05 AM 72.5°F22.5°C 67.4°F19.7°C 84% 0.7 mph S1.1 kmh S 3.8 mph6.1 kmh 29.70 in1005.8 mb 0.00 in0.0 mm 0.00 in0.0 mm 0.00 in0.0 mm
01:10 AM 72.7°F22.6°C 67.6°F19.8°C 84% 2.2 mph S3.5 kmh S 3.8 mph6.1 kmh 29.70 in1005.8 mb 0.00 in0.0 mm 0.00 in0.0 mm 0.00 in0.0 mm
01:15 AM 72.7°F22.6°C 67.6°F19.8°C 84% 1.6 mph S2.6 kmh S 3.1 mph5.0 kmh 29.70 in1005.8 mb 0.00 in0.0 mm 0.00 in0.0 mm 0.00 in0.0 mm
01:20 AM 72.9°F22.7°C 67.8°F19.9°C 84% Calm Calm 3.1 mph5.0 kmh 29.70 in1005.8 mb 0.00 in0.0 mm 0.00 in0.0 mm 0.00 in0.0 mm
01:25 AM 72.7°F22.6°C 67.6°F19.8°C 84% 0.7 mph S1.1 kmh S 1.6 mph2.6 kmh 29.70 in1005.8 mb 0.00 in0.0 mm 0.00 in0.0 mm 0.00 in0.0 mm
01:30 AM 73.0°F22.8°C 68.0°F20.0°C 84% 2.2 mph S3.5 kmh S 3.8 mph6.1 kmh 29.70 in1005.8 mb 0.00 in0.0 mm 0.00 in0.0 mm 0.00 in0.0 mm
01:35 AM 72.9°F22.7°C 67.4°F19.7°C 83% 3.1 mph S5.0 kmh S 3.8 mph6.1 kmh 29.70 in1005.8 mb 0.00 in0.0 mm 0.00 in0.0 mm 0.00 in0.0 mm
01:40 AM 72.3°F22.4°C 67.3°F19.6°C 84% 2.2 mph S3.5 kmh S 3.8 mph6.1 kmh 29.70 in1005.8 mb 0.00 in0.0 mm 0.00 in0.0 mm 0.00 in0.0 mm
01:45 AM 72.3°F22.4°C 67.3°F19.6°C 84% 2.2 mph S3.5 kmh S 3.8 mph6.1 kmh 29.69 in1005.4 mb 0.00 in0.0 mm 0.00 in0.0 mm 0.00 in0.0 mm
01:50 AM 72.3°F22.4°C 67.3°F19.6°C 84% 3.8 mph S6.1 kmh S 4.5 mph7.2 kmh 29.69 in1005.4 mb 0.00 in0.0 mm 0.00 in0.0 mm 0.00 in0.0 mm
01:55 AM 72.1°F22.3°C 67.1°F19.5°C 84% 2.2 mph S3.5 kmh S 4.5 mph7.2 kmh 29.69 in1005.4 mb 0.00 in0.0 mm 0.00 in0.0 mm 0.00 in0.0 mm
02:00 AM 72.0°F22.2°C 67.2°F19.6°C 85% 3.1 mph S5.0 kmh S 4.5 mph7.2 kmh 29.70 in1005.8 mb 0.00 in0.0 mm 0.00 in0.0 mm 0.00 in0.0 mm
02:05 AM 72.0°F22.2°C 67.2°F19.6°C 85% 1.6 mph S2.6 kmh S 4.5 mph7.2 kmh 29.69 in1005.4 mb 0.00 in0.0 mm 0.00 in0.0 mm 0.00 in0.0 mm
02:10 AM 72.3°F22.4°C 67.6°F19.8°C 85% 3.1 mph S5.0 kmh S 4.5 mph7.2 kmh 29.69 in1005.4 mb 0.00 in0.0 mm 0.00 in0.0 mm 0.00 in0.0 mm
02:15 AM 72.3°F22.4°C 67.6°F19.8°C 85% 3.8 mph S6.1 kmh S 4.5 mph7.2 kmh 29.69 in1005.4 mb 0.00 in0.0 mm 0.00 in0.0 mm 0.00 in0.0 mm
02:20 AM 72.7°F22.6°C 67.6°F19.8°C 84% 3.1 mph S5.0 kmh S 4.5 mph7.2 kmh 29.69 in1005.4 mb 0.00 in0.0 mm 0.00 in0.0 mm 0.00 in0.0 mm
02:25 AM 72.7°F22.6°C 67.6°F19.8°C 84% 3.8 mph S6.1 kmh S 4.5 mph7.2 kmh 29.69 in1005.4 mb 0.00 in0.0 mm 0.00 in0.0 mm 0.00 in0.0 mm
02:30 AM 73.0°F22.8°C 67.6°F19.8°C 83% 5.4 mph S8.7 kmh S 6.9 mph11.1 kmh 29.69 in1005.4 mb 0.00 in0.0 mm 0.00 in0.0 mm 0.00 in0.0 mm
02:35 AM 73.4°F23.0°C 68.0°F20.0°C 83% 3.8 mph S6.1 kmh S 6.9 mph11.1 kmh 29.69 in1005.4 mb 0.00 in0.0 mm 0.00 in0.0 mm 0.00 in0.0 mm
02:40 AM 73.6°F23.1°C 67.8°F19.9°C 82% 4.5 mph SSE7.2 kmh SSE 6.9 mph11.1 kmh 29.68 in1005.1 mb 0.00 in0.0 mm 0.00 in0.0 mm 0.00 in0.0 mm
02:45 AM 73.8°F23.2°C 68.0°F20.0°C 82% 4.5 mph S7.2 kmh S 6.9 mph11.1 kmh 29.68 in1005.1 mb 0.00 in0.0 mm 0.00 in0.0 mm 0.00 in0.0 mm
02:50 AM 73.9°F23.3°C 67.8°F19.9°C 81% 3.1 mph S5.0 kmh S 6.9 mph11.1 kmh 29.69 in1005.4 mb 0.00 in0.0 mm 0.00 in0.0 mm 0.00 in0.0 mm
02:55 AM 73.9°F23.3°C 67.8°F19.9°C 81% 2.2 mph S3.5 kmh S 6.9 mph11.1 kmh 29.69 in1005.4 mb 0.00 in0.0 mm 0.00 in0.0 mm 0.00 in0.0 mm
03:00 AM 73.4°F23.0°C 67.6°F19.8°C 82% 3.1 mph S5.0 kmh S 5.4 mph8.7 kmh 29.69 in1005.4 mb 0.00 in0.0 mm 0.00 in0.0 mm 0.00 in0.0 mm
03:05 AM 72.7°F22.6°C 67.3°F19.6°C 83% 5.4 mph S8.7 kmh S 6.9 mph11.1 kmh 29.69 in1005.4 mb 0.00 in0.0 mm 0.00 in0.0 mm 0.00 in0.0 mm
03:10 AM 72.9°F22.7°C 67.8°F19.9°C 84% 4.5 mph S7.2 kmh S 6.9 mph11.1 kmh 29.69 in1005.4 mb 0.00 in0.0 mm 0.00 in0.0 mm 0.00 in0.0 mm
03:15 AM 73.0°F22.8°C 68.0°F20.0°C 84% 3.1 mph S5.0 kmh S 6.9 mph11.1 kmh 29.69 in1005.4 mb 0.00 in0.0 mm 0.00 in0.0 mm 0.00 in0.0 mm
03:20 AM 72.7°F22.6°C 67.6°F19.8°C 84% 3.1 mph S5.0 kmh S 6.0 mph9.7 kmh 29.69 in1005.4 mb 0.00 in0.0 mm 0.00 in0.0 mm 0.00 in0.0 mm
03:25 AM 72.5°F22.5°C 67.4°F19.7°C 84% 1.6 mph S2.6 kmh S 3.8 mph6.1 kmh 29.69 in1005.4 mb 0.00 in0.0 mm 0.00 in0.0 mm 0.00 in0.0 mm
03:30 AM 72.3°F22.4°C 67.3°F19.6°C 84% 3.1 mph S5.0 kmh S 3.8 mph6.1 kmh 29.69 in1005.4 mb 0.00 in0.0 mm 0.00 in0.0 mm 0.00 in0.0 mm
03:35 AM 72.1°F22.3°C 67.1°F19.5°C 84% 3.1 mph S5.0 kmh S 4.5 mph7.2 kmh 29.69 in1005.4 mb 0.00 in0.0 mm 0.00 in0.0 mm 0.00 in0.0 mm
03:40 AM 72.7°F22.6°C 67.9°F19.9°C 85% 3.1 mph S5.0 kmh S 4.5 mph7.2 kmh 29.69 in1005.4 mb 0.00 in0.0 mm 0.00 in0.0 mm 0.00 in0.0 mm
03:45 AM 73.0°F22.8°C 68.0°F20.0°C 84% 3.1 mph SSE5.0 kmh SSE 5.4 mph8.7 kmh 29.69 in1005.4 mb 0.00 in0.0 mm 0.00 in0.0 mm 0.00 in0.0 mm
03:50 AM 73.6°F23.1°C 68.1°F20.1°C 83% 3.8 mph S6.1 kmh S 5.4 mph8.7 kmh 29.69 in1005.4 mb 0.00 in0.0 mm 0.00 in0.0 mm 0.00 in0.0 mm
03:55 AM 73.8°F23.2°C 68.3°F20.2°C 83% 2.2 mph S3.5 kmh S 4.5 mph7.2 kmh 29.69 in1005.4 mb 0.00 in0.0 mm 0.00 in0.0 mm 0.00 in0.0 mm
04:00 AM 73.4°F23.0°C 67.6°F19.8°C 82% 1.6 mph S2.6 kmh S 4.5 mph7.2 kmh 29.68 in1005.1 mb 0.00 in0.0 mm 0.00 in0.0 mm 0.00 in0.0 mm
04:05 AM 73.0°F22.8°C 67.3°F19.6°C 82% 2.2 mph S3.5 kmh S 3.1 mph5.0 kmh 29.68 in1005.1 mb 0.00 in0.0 mm 0.00 in0.0 mm 0.00 in0.0 mm
04:10 AM 72.7°F22.6°C 67.3°F19.6°C 83% 1.6 mph S2.6 kmh S 3.1 mph5.0 kmh 29.69 in1005.4 mb 0.00 in0.0 mm 0.00 in0.0 mm 0.00 in0.0 mm
04:15 AM 72.5°F22.5°C 67.1°F19.5°C 83% 0.7 mph S1.1 kmh S 3.1 mph5.0 kmh 29.68 in1005.1 mb 0.00 in0.0 mm 0.00 in0.0 mm 0.00 in0.0 mm
04:20 AM 72.3°F22.4°C 66.9°F19.4°C 83% 0.7 mph S1.1 kmh S 2.2 mph3.5 kmh 29.68 in1005.1 mb 0.00 in0.0 mm 0.00 in0.0 mm 0.00 in0.0 mm
04:25 AM 72.1°F22.3°C 67.1°F19.5°C 84% 0.7 mph S1.1 kmh S 1.6 mph2.6 kmh 29.69 in1005.4 mb 0.00 in0.0 mm 0.00 in0.0 mm 0.00 in0.0 mm
04:30 AM 72.1°F22.3°C 67.1°F19.5°C 84% 0.7 mph S1.1 kmh S 1.6 mph2.6 kmh 29.69 in1005.4 mb 0.00 in0.0 mm 0.00 in0.0 mm 0.00 in0.0 mm
04:35 AM 72.1°F22.3°C 67.1°F19.5°C 84% 0.7 mph S1.1 kmh S 1.6 mph2.6 kmh 29.69 in1005.4 mb 0.00 in0.0 mm 0.00 in0.0 mm 0.00 in0.0 mm
04:40 AM 72.5°F22.5°C 67.4°F19.7°C 84% 0.7 mph S1.1 kmh S 2.2 mph3.5 kmh 29.69 in1005.4 mb 0.00 in0.0 mm 0.00 in0.0 mm 0.00 in0.0 mm
04:45 AM 72.1°F22.3°C 67.1°F19.5°C 84% 0.7 mph SSW1.1 kmh SSW 2.2 mph3.5 kmh 29.69 in1005.4 mb 0.00 in0.0 mm 0.00 in0.0 mm 0.00 in0.0 mm
04:50 AM 72.1°F22.3°C 67.4°F19.7°C 85% 0.7 mph SW1.1 kmh SW 1.6 mph2.6 kmh 29.69 in1005.4 mb 0.00 in0.0 mm 0.00 in0.0 mm 0.00 in0.0 mm
04:55 AM 72.1°F22.3°C 67.4°F19.7°C 85% Calm Calm 1.6 mph2.6 kmh 29.69 in1005.4 mb 0.00 in0.0 mm 0.00 in0.0 mm 0.00 in0.0 mm
05:00 AM 72.0°F22.2°C 66.9°F19.4°C 84% 0.7 mph SSW1.1 kmh SSW 1.6 mph2.6 kmh 29.69 in1005.4 mb 0.00 in0.0 mm 0.00 in0.0 mm 0.00 in0.0 mm
05:05 AM 71.4°F21.9°C 66.4°F19.1°C 84% Calm Calm 1.6 mph2.6 kmh 29.69 in1005.4 mb 0.00 in0.0 mm 0.00 in0.0 mm 0.00 in0.0 mm
05:10 AM 71.2°F21.8°C 66.5°F19.2°C 85% Calm Calm 1.6 mph2.6 kmh 29.69 in1005.4 mb 0.00 in0.0 mm 0.00 in0.0 mm 0.00 in0.0 mm
05:15 AM 71.1°F21.7°C 66.4°F19.1°C 85% Calm Calm 0.7 mph1.1 kmh 29.69 in1005.4 mb 0.00 in0.0 mm 0.00 in0.0 mm 0.00 in0.0 mm
05:20 AM 71.1°F21.7°C 66.7°F19.3°C 86% Calm Calm -- 29.69 in1005.4 mb 0.00 in0.0 mm 0.00 in0.0 mm 0.00 in0.0 mm
05:25 AM 71.1°F21.7°C 66.7°F19.3°C 86% Calm Calm -- 29.69 in1005.4 mb 0.00 in0.0 mm 0.00 in0.0 mm 0.00 in0.0 mm
05:30 AM 70.9°F21.6°C 66.5°F19.2°C 86% Calm Calm -- 29.69 in1005.4 mb 0.00 in0.0 mm 0.00 in0.0 mm 0.00 in0.0 mm
05:35 AM 70.9°F21.6°C 66.5°F19.2°C 86% Calm Calm -- 29.68 in1005.1 mb 0.00 in0.0 mm 0.00 in0.0 mm 0.00 in0.0 mm
05:40 AM 70.7°F21.5°C 66.3°F19.1°C 86% Calm Calm -- 29.68 in1005.1 mb 0.00 in0.0 mm 0.00 in0.0 mm 0.00 in0.0 mm
05:45 AM 70.5°F21.4°C 66.5°F19.2°C 87% Calm Calm -- 29.68 in1005.1 mb 0.00 in0.0 mm 0.00 in0.0 mm 0.00 in0.0 mm
05:50 AM 70.9°F21.6°C 66.9°F19.4°C 87% Calm Calm -- 29.68 in1005.1 mb 0.00 in0.0 mm 0.00 in0.0 mm 0.00 in0.0 mm
05:55 AM 70.9°F21.6°C 66.9°F19.4°C 87% Calm Calm -- 29.69 in1005.4 mb 0.00 in0.0 mm 0.00 in0.0 mm 0.00 in0.0 mm
06:00 AM 70.9°F21.6°C 66.9°F19.4°C 87% Calm Calm -- 29.69 in1005.4 mb 0.00 in0.0 mm 0.00 in0.0 mm 0.00 in0.0 mm
06:05 AM 70.7°F21.5°C 66.7°F19.3°C 87% Calm Calm -- 29.70 in1005.8 mb 0.00 in0.0 mm 0.00 in0.0 mm 0.00 in0.0 mm
06:10 AM 70.7°F21.5°C 66.7°F19.3°C 87% Calm Calm -- 29.69 in1005.4 mb 0.00 in0.0 mm 0.00 in0.0 mm 0.00 in0.0 mm
06:15 AM 70.5°F21.4°C 66.5°F19.2°C 87% Calm Calm 1.6 mph2.6 kmh 29.69 in1005.4 mb 0.00 in0.0 mm 0.00 in0.0 mm 0.00 in0.0 mm
06:20 AM 70.5°F21.4°C 66.5°F19.2°C 87% Calm Calm 1.6 mph2.6 kmh 29.70 in1005.8 mb 0.00 in0.0 mm 0.00 in0.0 mm 0.00 in0.0 mm
06:25 AM 70.7°F21.5°C 67.0°F19.4°C 88% 0.7 mph E1.1 kmh E 1.6 mph2.6 kmh 29.70 in1005.8 mb 0.00 in0.0 mm 0.00 in0.0 mm 0.00 in0.0 mm
06:30 AM 71.1°F21.7°C 67.4°F19.7°C 88% 1.6 mph SE2.6 kmh SE 2.2 mph3.5 kmh 29.70 in1005.8 mb 0.00 in0.0 mm 0.00 in0.0 mm 0.00 in0.0 mm
06:35 AM 71.1°F21.7°C 67.7°F19.8°C 89% 2.2 mph SE3.5 kmh SE 3.1 mph5.0 kmh 29.70 in1005.8 mb 0.00 in0.0 mm 0.00 in0.0 mm 0.00 in0.0 mm
06:40 AM 71.4°F21.9°C 68.0°F20.0°C 89% 0.7 mph SE1.1 kmh SE 3.1 mph5.0 kmh 29.70 in1005.8 mb 0.00 in0.0 mm 0.00 in0.0 mm 0.00 in0.0 mm
06:45 AM 71.6°F22.0°C 68.2°F20.1°C 89% 0.7 mph SE1.1 kmh SE 3.8 mph6.1 kmh 29.70 in1005.8 mb 0.00 in0.0 mm 0.00 in0.0 mm 0.00 in0.0 mm
06:50 AM 71.8°F22.1°C 68.4°F20.2°C 89% 0.7 mph SE1.1 kmh SE 3.8 mph6.1 kmh 29.70 in1005.8 mb 0.00 in0.0 mm 0.00 in0.0 mm 0.00 in0.0 mm
06:55 AM 72.1°F22.3°C 68.8°F20.4°C 89% 1.6 mph SE2.6 kmh SE 2.2 mph3.5 kmh 29.70 in1005.8 mb 0.00 in0.0 mm 0.00 in0.0 mm 0.00 in0.0 mm
07:00 AM 72.7°F22.6°C 69.3°F20.7°C 89% 2.2 mph SE3.5 kmh SE 3.8 mph6.1 kmh 29.70 in1005.8 mb 0.00 in0.0 mm 0.00 in0.0 mm 0.00 in0.0 mm
07:05 AM 73.0°F22.8°C 69.6°F20.9°C 89% 2.2 mph SE3.5 kmh SE 5.4 mph8.7 kmh 29.70 in1005.8 mb 0.00 in0.0 mm 0.00 in0.0 mm 0.00 in0.0 mm
07:10 AM 73.4°F23.0°C 70.0°F21.1°C 89% 3.1 mph SE5.0 kmh SE 5.4 mph8.7 kmh 29.70 in1005.8 mb 0.00 in0.0 mm 0.00 in0.0 mm 0.00 in0.0 mm
07:15 AM 73.6°F23.1°C 70.2°F21.2°C 89% 2.2 mph SSE3.5 kmh SSE 5.4 mph8.7 kmh 29.70 in1005.8 mb 0.00 in0.0 mm 0.00 in0.0 mm 0.00 in0.0 mm
07:20 AM 73.8°F23.2°C 70.7°F21.5°C 90% 3.8 mph SSE6.1 kmh SSE 5.4 mph8.7 kmh 29.70 in1005.8 mb 0.00 in0.0 mm 0.00 in0.0 mm 0.00 in0.0 mm
07:25 AM 73.9°F23.3°C 70.9°F21.6°C 90% 3.8 mph SSE6.1 kmh SSE 5.4 mph8.7 kmh 29.70 in1005.8 mb 0.00 in0.0 mm 0.00 in0.0 mm 0.00 in0.0 mm
07:30 AM 73.9°F23.3°C 70.9°F21.6°C 90% 3.8 mph SSE6.1 kmh SSE 6.9 mph11.1 kmh 29.70 in1005.8 mb 0.00 in0.0 mm 0.00 in0.0 mm 0.00 in0.0 mm
07:35 AM 74.3°F23.5°C 70.9°F21.6°C 89% 3.1 mph SSE5.0 kmh SSE 6.9 mph11.1 kmh 29.71 in1006.1 mb 0.00 in0.0 mm 0.00 in0.0 mm 0.00 in0.0 mm
07:40 AM 74.5°F23.6°C 71.1°F21.7°C 89% 4.5 mph S7.2 kmh S 7.6 mph12.2 kmh 29.70 in1005.8 mb 0.00 in0.0 mm 0.00 in0.0 mm 0.00 in0.0 mm
07:45 AM 74.5°F23.6°C 71.1°F21.7°C 89% 3.1 mph S5.0 kmh S 7.6 mph12.2 kmh 29.71 in1006.1 mb 0.00 in0.0 mm 0.00 in0.0 mm 0.00 in0.0 mm
07:50 AM 74.5°F23.6°C 71.1°F21.7°C 89% 3.1 mph S5.0 kmh S 6.0 mph9.7 kmh 29.71 in1006.1 mb 0.00 in0.0 mm 0.00 in0.0 mm 0.00 in0.0 mm
07:55 AM 74.5°F23.6°C 71.1°F21.7°C 89% 3.1 mph S5.0 kmh S 4.5 mph7.2 kmh 29.71 in1006.1 mb 0.00 in0.0 mm 0.00 in0.0 mm 0.00 in0.0 mm
08:00 AM 74.8°F23.8°C 71.4°F21.9°C 89% 4.5 mph S7.2 kmh S 6.9 mph11.1 kmh 29.71 in1006.1 mb 0.00 in0.0 mm 0.00 in0.0 mm 0.00 in0.0 mm
08:05 AM 75.0°F23.9°C 71.3°F21.8°C 88% 4.5 mph S7.2 kmh S 6.9 mph11.1 kmh 29.71 in1006.1 mb 0.00 in0.0 mm 0.00 in0.0 mm 0.00 in0.0 mm
08:10 AM 75.0°F23.9°C 71.3°F21.8°C 88% 5.4 mph S8.7 kmh S 7.6 mph12.2 kmh 29.71 in1006.1 mb 0.00 in0.0 mm 0.00 in0.0 mm 0.00 in0.0 mm
08:15 AM 75.6°F24.2°C 71.5°F21.9°C 87% 4.5 mph S7.2 kmh S 7.6 mph12.2 kmh 29.71 in1006.1 mb 0.00 in0.0 mm 0.00 in0.0 mm 0.00 in0.0 mm
08:20 AM 75.7°F24.3°C 71.6°F22.0°C 87% 4.5 mph SSE7.2 kmh SSE 7.6 mph12.2 kmh 29.70 in1005.8 mb 0.00 in0.0 mm 0.00 in0.0 mm 0.00 in0.0 mm
08:25 AM 76.1°F24.5°C 72.0°F22.2°C 87% 4.5 mph SSE7.2 kmh SSE 8.3 mph13.4 kmh 29.70 in1005.8 mb 0.00 in0.0 mm 0.00 in0.0 mm 0.00 in0.0 mm
08:30 AM 76.3°F24.6°C 72.2°F22.3°C 87% 6.0 mph SSE9.7 kmh SSE 8.3 mph13.4 kmh 29.70 in1005.8 mb 0.00 in0.0 mm 0.00 in0.0 mm 0.00 in0.0 mm
08:35 AM 76.5°F24.7°C 72.4°F22.4°C 87% 5.4 mph SSE8.7 kmh SSE 9.8 mph15.8 kmh 29.70 in1005.8 mb 0.00 in0.0 mm 0.00 in0.0 mm 0.00 in0.0 mm
08:40 AM 76.8°F24.9°C 72.4°F22.4°C 86% 6.9 mph SSE11.1 kmh SSE 10.7 mph17.2 kmh 29.70 in1005.8 mb 0.00 in0.0 mm 0.00 in0.0 mm 0.00 in0.0 mm
08:45 AM 76.8°F24.9°C 72.0°F22.2°C 85% 6.9 mph SSE11.1 kmh SSE 10.7 mph17.2 kmh 29.70 in1005.8 mb 0.00 in0.0 mm 0.00 in0.0 mm 0.00 in0.0 mm
08:50 AM 77.0°F25.0°C 72.2°F22.3°C 85% 5.4 mph SSE8.7 kmh SSE 10.7 mph17.2 kmh 29.70 in1005.8 mb 0.00 in0.0 mm 0.00 in0.0 mm 0.00 in0.0 mm
08:55 AM 77.4°F25.2°C 72.2°F22.3°C 84% 4.5 mph SE7.2 kmh SE 10.7 mph17.2 kmh 29.71 in1006.1 mb 0.00 in0.0 mm 0.00 in0.0 mm 0.00 in0.0 mm
09:00 AM 77.4°F25.2°C 72.2°F22.3°C 84% 4.5 mph SSE7.2 kmh SSE 9.2 mph14.8 kmh 29.70 in1005.8 mb 0.00 in0.0 mm 0.00 in0.0 mm 0.00 in0.0 mm
09:05 AM 77.4°F25.2°C 71.8°F22.1°C 83% 5.4 mph SE8.7 kmh SE 11.4 mph18.3 kmh 29.71 in1006.1 mb 0.00 in0.0 mm 0.00 in0.0 mm 0.00 in0.0 mm
09:10 AM 77.5°F25.3°C 72.0°F22.2°C 83% 5.4 mph SE8.7 kmh SE 11.4 mph18.3 kmh 29.70 in1005.8 mb 0.00 in0.0 mm 0.00 in0.0 mm 0.00 in0.0 mm
09:15 AM 77.4°F25.2°C 71.5°F21.9°C 82% 6.0 mph SSE9.7 kmh SSE 10.7 mph17.2 kmh 29.71 in1006.1 mb 0.00 in0.0 mm 0.00 in0.0 mm 0.00 in0.0 mm
09:20 AM 77.4°F25.2°C 71.5°F21.9°C 82% 3.8 mph S6.1 kmh S 10.7 mph17.2 kmh 29.72 in1006.4 mb 0.00 in0.0 mm 0.00 in0.0 mm 0.00 in0.0 mm
09:25 AM 77.7°F25.4°C 71.8°F22.1°C 82% 6.0 mph S9.7 kmh S 8.3 mph13.4 kmh 29.72 in1006.4 mb 0.00 in0.0 mm 0.00 in0.0 mm 0.00 in0.0 mm
09:30 AM 78.3°F25.7°C 72.0°F22.2°C 81% 6.0 mph S9.7 kmh S 8.3 mph13.4 kmh 29.72 in1006.4 mb 0.00 in0.0 mm 0.00 in0.0 mm 0.00 in0.0 mm
09:35 AM 78.6°F25.9°C 71.2°F21.8°C 78% 6.0 mph S9.7 kmh S 9.2 mph14.8 kmh 29.73 in1006.8 mb 0.00 in0.0 mm 0.00 in0.0 mm 0.00 in0.0 mm
09:40 AM 78.8°F26.0°C 71.0°F21.7°C 77% 6.0 mph S9.7 kmh S 9.2 mph14.8 kmh 29.73 in1006.8 mb 0.00 in0.0 mm 0.00 in0.0 mm 0.00 in0.0 mm
09:45 AM 79.3°F26.3°C 71.2°F21.8°C 76% 6.0 mph S9.7 kmh S 9.2 mph14.8 kmh 29.72 in1006.4 mb 0.00 in0.0 mm 0.00 in0.0 mm 0.00 in0.0 mm
09:50 AM 79.5°F26.4°C 70.2°F21.2°C 73% 6.9 mph S11.1 kmh S 9.2 mph14.8 kmh 29.72 in1006.4 mb 0.00 in0.0 mm 0.00 in0.0 mm 0.00 in0.0 mm
09:55 AM 80.1°F26.7°C 69.9°F21.1°C 71% 8.3 mph S13.4 kmh S 13.0 mph20.9 kmh 29.72 in1006.4 mb 0.00 in0.0 mm 0.00 in0.0 mm 0.00 in0.0 mm
10:00 AM 80.2°F26.8°C 69.2°F20.7°C 69% 6.0 mph S9.7 kmh S 13.0 mph20.9 kmh 29.72 in1006.4 mb 0.00 in0.0 mm 0.00 in0.0 mm 0.00 in0.0 mm
10:05 AM 80.2°F26.8°C 69.2°F20.7°C 69% 6.0 mph S9.7 kmh S 9.8 mph15.8 kmh 29.73 in1006.8 mb 0.00 in0.0 mm 0.00 in0.0 mm 0.00 in0.0 mm
10:10 AM 80.6°F27.0°C 70.0°F21.1°C 70% 5.4 mph S8.7 kmh S 9.2 mph14.8 kmh 29.73 in1006.8 mb 0.00 in0.0 mm 0.00 in0.0 mm 0.00 in0.0 mm
10:15 AM 80.8°F27.1°C 69.7°F20.9°C 69% 4.5 mph S7.2 kmh S 8.3 mph13.4 kmh 29.74 in1007.1 mb 0.00 in0.0 mm 0.00 in0.0 mm 0.00 in0.0 mm
10:20 AM 80.8°F27.1°C 69.3°F20.7°C 68% 6.0 mph S9.7 kmh S 10.7 mph17.2 kmh 29.73 in1006.8 mb 0.00 in0.0 mm 0.00 in0.0 mm 0.00 in0.0 mm
10:25 AM 80.8°F27.1°C 69.7°F20.9°C 69% 6.9 mph S11.1 kmh S 10.7 mph17.2 kmh 29.73 in1006.8 mb 0.00 in0.0 mm 0.00 in0.0 mm 0.00 in0.0 mm
10:30 AM 81.0°F27.2°C 69.9°F21.1°C 69% 6.0 mph S9.7 kmh S 10.7 mph17.2 kmh 29.74 in1007.1 mb 0.00 in0.0 mm 0.00 in0.0 mm 0.00 in0.0 mm
10:35 AM 81.1°F27.3°C 70.1°F21.2°C 69% 6.9 mph S11.1 kmh S 10.7 mph17.2 kmh 29.74 in1007.1 mb 0.00 in0.0 mm 0.00 in0.0 mm 0.00 in0.0 mm
10:40 AM 81.9°F27.7°C 69.9°F21.1°C 67% 7.6 mph SSE12.2 kmh SSE 11.4 mph18.3 kmh 29.73 in1006.8 mb 0.00 in0.0 mm 0.00 in0.0 mm 0.00 in0.0 mm
10:45 AM 81.9°F27.7°C 69.9°F21.1°C 67% 6.9 mph SSE11.1 kmh SSE 11.4 mph18.3 kmh 29.73 in1006.8 mb 0.00 in0.0 mm 0.00 in0.0 mm 0.00 in0.0 mm
10:50 AM 82.2°F27.9°C 69.8°F21.0°C 66% 6.9 mph S11.1 kmh S 11.4 mph18.3 kmh 29.74 in1007.1 mb 0.00 in0.0 mm 0.00 in0.0 mm 0.00 in0.0 mm
10:55 AM 82.4°F28.0°C 69.5°F20.8°C 65% 7.6 mph S12.2 kmh S 11.4 mph18.3 kmh 29.74 in1007.1 mb 0.00 in0.0 mm 0.00 in0.0 mm 0.00 in0.0 mm
11:00 AM 82.6°F28.1°C 69.7°F20.9°C 65% 6.9 mph S11.1 kmh S 12.1 mph19.5 kmh 29.74 in1007.1 mb 0.00 in0.0 mm 0.00 in0.0 mm 0.00 in0.0 mm
11:05 AM 82.9°F28.3°C 70.0°F21.1°C 65% 9.2 mph SSE14.8 kmh SSE 13.6 mph21.9 kmh 29.74 in1007.1 mb 0.00 in0.0 mm 0.00 in0.0 mm 0.00 in0.0 mm
11:10 AM 83.7°F28.7°C 70.2°F21.2°C 64% 10.7 mph S17.2 kmh S 15.2 mph24.5 kmh 29.74 in1007.1 mb 0.00 in0.0 mm 0.00 in0.0 mm 0.00 in0.0 mm
11:15 AM 84.2°F29.0°C 70.3°F21.3°C 63% 9.8 mph S15.8 kmh S 19.7 mph31.7 kmh 29.74 in1007.1 mb 0.00 in0.0 mm 0.00 in0.0 mm 0.00 in0.0 mm
11:20 AM 84.7°F29.3°C 70.8°F21.6°C 63% 10.7 mph S17.2 kmh S 19.7 mph31.7 kmh 29.74 in1007.1 mb 0.00 in0.0 mm 0.00 in0.0 mm 0.00 in0.0 mm
11:25 AM 85.1°F29.5°C 71.1°F21.7°C 63% 9.8 mph SSW15.8 kmh SSW 17.4 mph28.0 kmh 29.74 in1007.1 mb 0.00 in0.0 mm 0.00 in0.0 mm 0.00 in0.0 mm
11:30 AM 84.7°F29.3°C 71.3°F21.8°C 64% 10.7 mph SSW17.2 kmh SSW 16.8 mph27.0 kmh 29.74 in1007.1 mb 0.00 in0.0 mm 0.00 in0.0 mm 0.00 in0.0 mm
11:35 AM 84.6°F29.2°C 70.6°F21.4°C 63% 13.6 mph S21.9 kmh S 16.8 mph27.0 kmh 29.75 in1007.5 mb 0.00 in0.0 mm 0.00 in0.0 mm 0.00 in0.0 mm
11:40 AM 84.0°F28.9°C 71.0°F21.7°C 65% 9.8 mph S15.8 kmh S 16.8 mph27.0 kmh 29.75 in1007.5 mb 0.00 in0.0 mm 0.00 in0.0 mm 0.00 in0.0 mm
11:45 AM 84.2°F29.0°C 71.7°F22.1°C 66% 13.0 mph S20.9 kmh S 15.9 mph25.6 kmh 29.75 in1007.5 mb 0.00 in0.0 mm 0.00 in0.0 mm 0.00 in0.0 mm
11:50 AM 84.4°F29.1°C 71.4°F21.9°C 65% 12.1 mph S19.5 kmh S 18.3 mph29.5 kmh 29.74 in1007.1 mb 0.00 in0.0 mm 0.00 in0.0 mm 0.00 in0.0 mm
11:55 AM 85.1°F29.5°C 72.1°F22.3°C 65% 13.6 mph S21.9 kmh S 18.3 mph29.5 kmh 29.74 in1007.1 mb 0.00 in0.0 mm 0.00 in0.0 mm 0.00 in0.0 mm
12:00 PM 84.7°F29.3°C 72.2°F22.3°C 66% 10.7 mph S17.2 kmh S 18.3 mph29.5 kmh 29.74 in1007.1 mb 0.00 in0.0 mm 0.00 in0.0 mm 0.00 in0.0 mm
12:05 PM 84.6°F29.2°C 71.6°F22.0°C 65% 10.7 mph S17.2 kmh S 19.7 mph31.7 kmh 29.74 in1007.1 mb 0.00 in0.0 mm 0.00 in0.0 mm 0.00 in0.0 mm
12:10 PM 85.6°F29.8°C 73.0°F22.8°C 66% 9.2 mph S14.8 kmh S 19.7 mph31.7 kmh 29.74 in1007.1 mb 0.00 in0.0 mm 0.00 in0.0 mm 0.00 in0.0 mm
12:15 PM 86.0°F30.0°C 72.5°F22.5°C 64% 11.4 mph S18.3 kmh S 19.7 mph31.7 kmh 29.73 in1006.8 mb 0.00 in0.0 mm 0.00 in0.0 mm 0.00 in0.0 mm
12:20 PM 85.6°F29.8°C 72.1°F22.3°C 64% 9.8 mph S15.8 kmh S 19.7 mph31.7 kmh 29.73 in1006.8 mb 0.00 in0.0 mm 0.00 in0.0 mm 0.00 in0.0 mm
12:25 PM 85.5°F29.7°C 72.0°F22.2°C 64% 14.5 mph S23.3 kmh S 19.0 mph30.6 kmh 29.73 in1006.8 mb 0.00 in0.0 mm 0.00 in0.0 mm 0.00 in0.0 mm
12:30 PM 85.1°F29.5°C 72.5°F22.5°C 66% 12.1 mph SSW19.5 kmh SSW 19.0 mph30.6 kmh 29.73 in1006.8 mb 0.00 in0.0 mm 0.00 in0.0 mm 0.00 in0.0 mm
12:35 PM 85.5°F29.7°C 72.9°F22.7°C 66% 13.0 mph SSW20.9 kmh SSW 19.0 mph30.6 kmh 29.73 in1006.8 mb 0.00 in0.0 mm 0.00 in0.0 mm 0.00 in0.0 mm
12:40 PM 85.3°F29.6°C 72.2°F22.3°C 65% 10.7 mph S17.2 kmh S 20.6 mph33.2 kmh 29.72 in1006.4 mb 0.00 in0.0 mm 0.00 in0.0 mm 0.00 in0.0 mm
12:45 PM 85.6°F29.8°C 72.6°F22.6°C 65% 11.4 mph S18.3 kmh S 20.6 mph33.2 kmh 29.72 in1006.4 mb 0.00 in0.0 mm 0.00 in0.0 mm 0.00 in0.0 mm
12:50 PM 86.0°F30.0°C 72.9°F22.7°C 65% 12.1 mph S19.5 kmh S 16.8 mph27.0 kmh 29.72 in1006.4 mb 0.00 in0.0 mm 0.00 in0.0 mm 0.00 in0.0 mm
12:55 PM 86.4°F30.2°C 71.4°F21.9°C 61% 12.1 mph S19.5 kmh S 18.3 mph29.5 kmh 29.72 in1006.4 mb 0.00 in0.0 mm 0.00 in0.0 mm 0.00 in0.0 mm
01:00 PM 86.2°F30.1°C 71.7°F22.1°C 62% 11.4 mph SSW18.3 kmh SSW 18.3 mph29.5 kmh 29.72 in1006.4 mb 0.00 in0.0 mm 0.00 in0.0 mm 0.00 in0.0 mm
01:05 PM 86.0°F30.0°C 71.5°F21.9°C 62% 12.1 mph SSW19.5 kmh SSW 17.4 mph28.0 kmh 29.72 in1006.4 mb 0.00 in0.0 mm 0.00 in0.0 mm 0.00 in0.0 mm
01:10 PM 86.4°F30.2°C 72.3°F22.4°C 63% 13.0 mph SSW20.9 kmh SSW 17.4 mph28.0 kmh 29.72 in1006.4 mb 0.00 in0.0 mm 0.00 in0.0 mm 0.00 in0.0 mm
01:15 PM 85.8°F29.9°C 71.8°F22.1°C 63% 15.2 mph SSW24.5 kmh SSW 18.3 mph29.5 kmh 29.72 in1006.4 mb 0.00 in0.0 mm 0.00 in0.0 mm 0.00 in0.0 mm
01:20 PM 85.1°F29.5°C 71.6°F22.0°C 64% 15.2 mph S24.5 kmh S 19.7 mph31.7 kmh 29.72 in1006.4 mb 0.00 in0.0 mm 0.00 in0.0 mm 0.00 in0.0 mm
01:25 PM 85.1°F29.5°C 71.6°F22.0°C 64% 13.0 mph S20.9 kmh S 23.5 mph37.8 kmh 29.71 in1006.1 mb 0.00 in0.0 mm 0.00 in0.0 mm 0.00 in0.0 mm
01:30 PM 85.1°F29.5°C 71.6°F22.0°C 64% 14.5 mph S23.3 kmh S 23.5 mph37.8 kmh 29.71 in1006.1 mb 0.00 in0.0 mm 0.00 in0.0 mm 0.00 in0.0 mm
01:35 PM 84.9°F29.4°C 72.4°F22.4°C 66% 12.1 mph S19.5 kmh S 18.3 mph29.5 kmh 29.72 in1006.4 mb 0.00 in0.0 mm 0.00 in0.0 mm 0.00 in0.0 mm
01:40 PM 84.4°F29.1°C 71.4°F21.9°C 65% 13.0 mph SSW20.9 kmh SSW 17.4 mph28.0 kmh 29.71 in1006.1 mb 0.00 in0.0 mm 0.00 in0.0 mm 0.00 in0.0 mm
01:45 PM 84.0°F28.9°C 71.5°F21.9°C 66% 12.1 mph SSW19.5 kmh SSW 17.4 mph28.0 kmh 29.71 in1006.1 mb 0.00 in0.0 mm 0.00 in0.0 mm 0.00 in0.0 mm
01:50 PM 84.0°F28.9°C 72.4°F22.4°C 68% 11.4 mph S18.3 kmh S 17.4 mph28.0 kmh 29.71 in1006.1 mb 0.00 in0.0 mm 0.00 in0.0 mm 0.00 in0.0 mm
01:55 PM 84.2°F29.0°C 72.6°F22.6°C 68% 14.5 mph S23.3 kmh S 17.4 mph28.0 kmh 29.71 in1006.1 mb 0.00 in0.0 mm 0.00 in0.0 mm 0.00 in0.0 mm
02:00 PM 83.7°F28.7°C 72.9°F22.7°C 70% 12.1 mph S19.5 kmh S 17.4 mph28.0 kmh 29.71 in1006.1 mb 0.00 in0.0 mm 0.00 in0.0 mm 0.00 in0.0 mm
02:05 PM 83.5°F28.6°C 71.9°F22.2°C 68% 11.4 mph SSW18.3 kmh SSW 17.4 mph28.0 kmh 29.71 in1006.1 mb 0.00 in0.0 mm 0.00 in0.0 mm 0.00 in0.0 mm
02:10 PM 83.5°F28.6°C 73.1°F22.8°C 71% 13.6 mph SW21.9 kmh SW 18.3 mph29.5 kmh 29.71 in1006.1 mb 0.00 in0.0 mm 0.00 in0.0 mm 0.00 in0.0 mm
02:15 PM 83.5°F28.6°C 73.1°F22.8°C 71% 15.2 mph SW24.5 kmh SW 18.3 mph29.5 kmh 29.71 in1006.1 mb 0.00 in0.0 mm 0.00 in0.0 mm 0.00 in0.0 mm
02:20 PM 83.5°F28.6°C 73.1°F22.8°C 71% 11.4 mph SW18.3 kmh SW 17.4 mph28.0 kmh 29.72 in1006.4 mb 0.00 in0.0 mm 0.00 in0.0 mm 0.00 in0.0 mm
02:25 PM 83.7°F28.7°C 72.9°F22.7°C 70% 15.9 mph SW25.6 kmh SW 19.7 mph31.7 kmh 29.71 in1006.1 mb 0.00 in0.0 mm 0.00 in0.0 mm 0.00 in0.0 mm
02:30 PM 83.7°F28.7°C 73.7°F23.2°C 72% 14.5 mph SW23.3 kmh SW 20.6 mph33.2 kmh 29.72 in1006.4 mb 0.00 in0.0 mm 0.00 in0.0 mm 0.00 in0.0 mm
02:35 PM 84.2°F29.0°C 73.8°F23.2°C 71% 13.6 mph SW21.9 kmh SW 20.6 mph33.2 kmh 29.72 in1006.4 mb 0.00 in0.0 mm 0.00 in0.0 mm 0.00 in0.0 mm
02:40 PM 84.2°F29.0°C 74.3°F23.5°C 72% 14.5 mph SW23.3 kmh SW 22.8 mph36.7 kmh 29.71 in1006.1 mb 0.00 in0.0 mm 0.00 in0.0 mm 0.00 in0.0 mm
02:45 PM 83.5°F28.6°C 74.0°F23.3°C 73% 14.5 mph SW23.3 kmh SW 22.8 mph36.7 kmh 29.71 in1006.1 mb 0.00 in0.0 mm 0.00 in0.0 mm 0.00 in0.0 mm
02:50 PM 83.7°F28.7°C 74.1°F23.4°C 73% 15.2 mph SW24.5 kmh SW 25.1 mph40.4 kmh 29.70 in1005.8 mb 0.00 in0.0 mm 0.00 in0.0 mm 0.00 in0.0 mm
02:55 PM 83.7°F28.7°C 73.7°F23.2°C 72% 17.4 mph SW28.0 kmh SW 25.1 mph40.4 kmh 29.71 in1006.1 mb 0.00 in0.0 mm 0.00 in0.0 mm 0.00 in0.0 mm
03:00 PM 84.6°F29.2°C 74.2°F23.4°C 71% 19.7 mph SW31.7 kmh SW 23.5 mph37.8 kmh 29.71 in1006.1 mb 0.00 in0.0 mm 0.00 in0.0 mm 0.00 in0.0 mm
03:05 PM 84.6°F29.2°C 73.8°F23.2°C 70% 18.3 mph SW29.5 kmh SW 23.5 mph37.8 kmh 29.70 in1005.8 mb 0.00 in0.0 mm 0.00 in0.0 mm 0.00 in0.0 mm
03:10 PM 84.0°F28.9°C 73.7°F23.2°C 71% 13.6 mph SW21.9 kmh SW 23.5 mph37.8 kmh 29.70 in1005.8 mb 0.00 in0.0 mm 0.00 in0.0 mm 0.00 in0.0 mm
03:15 PM 83.8°F28.8°C 73.5°F23.1°C 71% 15.2 mph SW24.5 kmh SW 23.5 mph37.8 kmh 29.69 in1005.4 mb 0.00 in0.0 mm 0.00 in0.0 mm 0.00 in0.0 mm
03:20 PM 84.2°F29.0°C 73.4°F23.0°C 70% 18.3 mph SW29.5 kmh SW 23.5 mph37.8 kmh 29.69 in1005.4 mb 0.00 in0.0 mm 0.00 in0.0 mm 0.00 in0.0 mm
03:25 PM 83.3°F28.5°C 73.4°F23.0°C 72% 18.3 mph SW29.5 kmh SW 25.1 mph40.4 kmh 29.69 in1005.4 mb 0.00 in0.0 mm 0.00 in0.0 mm 0.00 in0.0 mm
03:30 PM 82.9°F28.3°C 73.9°F23.3°C 74% 12.1 mph SW19.5 kmh SW 25.1 mph40.4 kmh 29.68 in1005.1 mb 0.00 in0.0 mm 0.00 in0.0 mm 0.00 in0.0 mm
03:35 PM 82.8°F28.2°C 73.7°F23.2°C 74% 13.0 mph SW20.9 kmh SW 24.4 mph39.3 kmh 29.68 in1005.1 mb 0.00 in0.0 mm 0.00 in0.0 mm 0.00 in0.0 mm
03:40 PM 82.8°F28.2°C 74.1°F23.4°C 75% 16.8 mph SW27.0 kmh SW 23.5 mph37.8 kmh 29.68 in1005.1 mb 0.00 in0.0 mm 0.00 in0.0 mm 0.00 in0.0 mm
03:45 PM 83.7°F28.7°C 74.6°F23.7°C 74% 15.2 mph SW24.5 kmh SW 23.5 mph37.8 kmh 29.68 in1005.1 mb 0.00 in0.0 mm 0.00 in0.0 mm 0.00 in0.0 mm
03:50 PM 84.6°F29.2°C 75.0°F23.9°C 73% 16.8 mph SW27.0 kmh SW 22.8 mph36.7 kmh 29.68 in1005.1 mb 0.00 in0.0 mm 0.00 in0.0 mm 0.00 in0.0 mm
03:55 PM 84.4°F29.1°C 74.4°F23.6°C 72% 13.6 mph SW21.9 kmh SW 23.5 mph37.8 kmh 29.69 in1005.4 mb 0.00 in0.0 mm 0.00 in0.0 mm 0.00 in0.0 mm
04:00 PM 83.5°F28.6°C 73.6°F23.1°C 72% 18.3 mph SW29.5 kmh SW 23.5 mph37.8 kmh 29.68 in1005.1 mb 0.00 in0.0 mm 0.00 in0.0 mm 0.00 in0.0 mm
04:05 PM 82.6°F28.1°C 73.9°F23.3°C 75% 15.2 mph WSW24.5 kmh WSW 22.1 mph35.6 kmh 29.68 in1005.1 mb 0.00 in0.0 mm 0.00 in0.0 mm 0.00 in0.0 mm
04:10 PM 82.6°F28.1°C 73.9°F23.3°C 75% 15.2 mph SW24.5 kmh SW 22.1 mph35.6 kmh 29.68 in1005.1 mb 0.00 in0.0 mm 0.00 in0.0 mm 0.00 in0.0 mm
04:15 PM 82.8°F28.2°C 74.1°F23.4°C 75% 13.6 mph SW21.9 kmh SW 19.7 mph31.7 kmh 29.68 in1005.1 mb 0.00 in0.0 mm 0.00 in0.0 mm 0.00 in0.0 mm
04:20 PM 83.1°F28.4°C 74.4°F23.6°C 75% 13.6 mph SW21.9 kmh SW 19.7 mph31.7 kmh 29.68 in1005.1 mb 0.00 in0.0 mm 0.00 in0.0 mm 0.00 in0.0 mm
04:25 PM 82.6°F28.1°C 74.3°F23.5°C 76% 12.1 mph WSW19.5 kmh WSW 19.7 mph31.7 kmh 29.68 in1005.1 mb 0.00 in0.0 mm 0.00 in0.0 mm 0.00 in0.0 mm
04:30 PM 82.0°F27.8°C 74.2°F23.4°C 77% 11.4 mph SW18.3 kmh SW 19.7 mph31.7 kmh 29.67 in1004.7 mb 0.00 in0.0 mm 0.00 in0.0 mm 0.00 in0.0 mm
04:35 PM 81.9°F27.7°C 74.0°F23.3°C 77% 12.1 mph SW19.5 kmh SW 18.3 mph29.5 kmh 29.68 in1005.1 mb 0.00 in0.0 mm 0.00 in0.0 mm 0.00 in0.0 mm
04:40 PM 80.4°F26.9°C 71.0°F21.7°C 73% 21.3 mph WSW34.3 kmh WSW 29.8 mph48.0 kmh 29.73 in1006.8 mb 0.11 in2.8 mm 1.32 in33.5 mm 0.11 in2.8 mm
04:45 PM 75.9°F24.4°C 68.2°F20.1°C 77% 12.1 mph WNW19.5 kmh WNW 38.0 mph61.2 kmh 29.73 in1006.8 mb 0.52 in13.2 mm 4.92 in125.0 mm 0.52 in13.2 mm
04:50 PM 73.8°F23.2°C 68.0°F20.0°C 82% 15.9 mph NW25.6 kmh NW 38.0 mph61.2 kmh 29.71 in1006.1 mb 0.79 in20.1 mm 3.24 in82.3 mm 0.79 in20.1 mm
04:55 PM 72.0°F22.2°C 67.2°F19.6°C 85% 13.6 mph NW21.9 kmh NW 29.8 mph48.0 kmh 29.71 in1006.1 mb 0.93 in23.6 mm 1.68 in42.7 mm 0.93 in23.6 mm
05:00 PM 72.0°F22.2°C 67.6°F19.8°C 86% 9.8 mph NW15.8 kmh NW 29.8 mph48.0 kmh 29.72 in1006.4 mb 0.98 in24.9 mm 0.05 in1.3 mm 0.98 in24.9 mm
05:05 PM 71.8°F22.1°C 67.4°F19.7°C 86% 8.3 mph NW13.4 kmh NW 23.5 mph37.8 kmh 29.73 in1006.8 mb 0.99 in25.1 mm 0.12 in3.0 mm 0.99 in25.1 mm
05:10 PM 71.8°F22.1°C 67.4°F19.7°C 86% 9.2 mph NW14.8 kmh NW 20.6 mph33.2 kmh 29.72 in1006.4 mb 1.03 in26.2 mm 0.48 in12.2 mm 1.03 in26.2 mm
05:15 PM 71.8°F22.1°C 67.4°F19.7°C 86% 10.7 mph NNW17.2 kmh NNW 16.8 mph27.0 kmh 29.73 in1006.8 mb 1.04 in26.4 mm 0.12 in3.0 mm 1.04 in26.4 mm
05:20 PM 71.6°F22.0°C 67.2°F19.6°C 86% 8.3 mph NNW13.4 kmh NNW 16.8 mph27.0 kmh 29.73 in1006.8 mb 1.07 in27.2 mm 0.36 in9.1 mm 1.07 in27.2 mm
05:25 PM 71.8°F22.1°C 67.7°F19.8°C 87% 6.9 mph NNW11.1 kmh NNW 15.2 mph24.5 kmh 29.72 in1006.4 mb 1.11 in28.2 mm 0.48 in12.2 mm 1.11 in28.2 mm
05:30 PM 71.6°F22.0°C 67.6°F19.8°C 87% 5.4 mph NNW8.7 kmh NNW 12.1 mph19.5 kmh 29.72 in1006.4 mb 1.12 in28.4 mm 0.12 in3.0 mm 1.12 in28.4 mm
05:35 PM 71.6°F22.0°C 67.6°F19.8°C 87% 7.6 mph N12.2 kmh N 12.1 mph19.5 kmh 29.72 in1006.4 mb 1.13 in28.7 mm 0.12 in3.0 mm 1.13 in28.7 mm
05:40 PM 71.8°F22.1°C 68.1°F20.1°C 88% 5.4 mph NNW8.7 kmh NNW 12.1 mph19.5 kmh 29.72 in1006.4 mb 1.04 in26.4 mm 0.00 in0.0 mm 1.15 in29.2 mm
05:45 PM 72.0°F22.2°C 68.2°F20.1°C 88% 6.0 mph NNW9.7 kmh NNW 12.1 mph19.5 kmh 29.72 in1006.4 mb 0.63 in16.0 mm 0.00 in0.0 mm 1.15 in29.2 mm
05:50 PM 72.0°F22.2°C 68.2°F20.1°C 88% 6.9 mph N11.1 kmh N 10.7 mph17.2 kmh 29.71 in1006.1 mb 0.37 in9.4 mm 0.00 in0.0 mm 1.16 in29.5 mm
05:55 PM 71.8°F22.1°C 67.7°F19.8°C 87% 9.8 mph N15.8 kmh N 13.0 mph20.9 kmh 29.71 in1006.1 mb 0.21 in5.3 mm 0.00 in0.0 mm 1.17 in29.7 mm
06:00 PM 71.8°F22.1°C 67.7°F19.8°C 87% 7.6 mph N12.2 kmh N 13.0 mph20.9 kmh 29.70 in1005.8 mb 0.19 in4.8 mm 0.00 in0.0 mm 1.17 in29.7 mm
06:05 PM 72.0°F22.2°C 67.9°F19.9°C 87% 5.4 mph N8.7 kmh N 12.1 mph19.5 kmh 29.70 in1005.8 mb 0.18 in4.6 mm 0.00 in0.0 mm 1.17 in29.7 mm
06:10 PM 72.0°F22.2°C 67.9°F19.9°C 87% 5.4 mph N8.7 kmh N 13.0 mph20.9 kmh 29.70 in1005.8 mb 0.14 in3.6 mm 0.00 in0.0 mm 1.17 in29.7 mm
06:15 PM 72.1°F22.3°C 68.1°F20.1°C 87% 4.5 mph N7.2 kmh N 13.0 mph20.9 kmh 29.71 in1006.1 mb 0.13 in3.3 mm 0.00 in0.0 mm 1.17 in29.7 mm
06:20 PM 72.1°F22.3°C 68.1°F20.1°C 87% 6.0 mph N9.7 kmh N 9.8 mph15.8 kmh 29.71 in1006.1 mb 0.09 in2.3 mm 0.00 in0.0 mm 1.17 in29.7 mm
06:25 PM 72.1°F22.3°C 67.8°F19.9°C 86% 3.8 mph N6.1 kmh N 9.8 mph15.8 kmh 29.71 in1006.1 mb 0.06 in1.5 mm 0.00 in0.0 mm 1.17 in29.7 mm
06:30 PM 72.0°F22.2°C 67.9°F19.9°C 87% 3.8 mph N6.1 kmh N 8.3 mph13.4 kmh 29.71 in1006.1 mb 0.05 in1.3 mm 0.00 in0.0 mm 1.17 in29.7 mm
06:35 PM 72.1°F22.3°C 68.1°F20.1°C 87% 3.8 mph N6.1 kmh N 7.6 mph12.2 kmh 29.71 in1006.1 mb 0.04 in1.0 mm 0.00 in0.0 mm 1.17 in29.7 mm
06:40 PM 72.0°F22.2°C 67.9°F19.9°C 87% 3.1 mph NNE5.0 kmh NNE 7.6 mph12.2 kmh 29.71 in1006.1 mb 0.02 in0.5 mm 0.00 in0.0 mm 1.17 in29.7 mm
06:45 PM 72.1°F22.3°C 68.1°F20.1°C 87% 6.0 mph NE9.7 kmh NE 9.2 mph14.8 kmh 29.71 in1006.1 mb 0.01 in0.3 mm 0.00 in0.0 mm 1.17 in29.7 mm
06:50 PM 72.1°F22.3°C 68.1°F20.1°C 87% 4.5 mph NE7.2 kmh NE 9.2 mph14.8 kmh 29.70 in1005.8 mb 0.01 in0.3 mm 0.00 in0.0 mm 1.17 in29.7 mm
06:55 PM 72.3°F22.4°C 68.3°F20.2°C 87% 3.8 mph NE6.1 kmh NE 8.3 mph13.4 kmh 29.70 in1005.8 mb 0.00 in0.0 mm 0.00 in0.0 mm 1.17 in29.7 mm
07:00 PM 72.3°F22.4°C 68.3°F20.2°C 87% 5.4 mph ENE8.7 kmh ENE 13.0 mph20.9 kmh 29.70 in1005.8 mb 0.00 in0.0 mm 0.00 in0.0 mm 1.17 in29.7 mm
07:05 PM 72.1°F22.3°C 68.1°F20.1°C 87% 6.9 mph E11.1 kmh E 13.0 mph20.9 kmh 29.69 in1005.4 mb 0.00 in0.0 mm 0.00 in0.0 mm 1.17 in29.7 mm
07:10 PM 72.0°F22.2°C 68.2°F20.1°C 88% 7.6 mph E12.2 kmh E 10.7 mph17.2 kmh 29.69 in1005.4 mb 0.00 in0.0 mm 0.00 in0.0 mm 1.17 in29.7 mm
07:15 PM 72.0°F22.2°C 68.2°F20.1°C 88% 6.9 mph E11.1 kmh E 13.0 mph20.9 kmh 29.70 in1005.8 mb 0.00 in0.0 mm 0.00 in0.0 mm 1.17 in29.7 mm
07:20 PM 71.8°F22.1°C 68.1°F20.1°C 88% 4.5 mph E7.2 kmh E 13.0 mph20.9 kmh 29.69 in1005.4 mb 0.00 in0.0 mm 0.00 in0.0 mm 1.17 in29.7 mm
07:25 PM 71.8°F22.1°C 68.1°F20.1°C 88% 13.0 mph E20.9 kmh E 16.8 mph27.0 kmh 29.68 in1005.1 mb 0.00 in0.0 mm 0.00 in0.0 mm 1.17 in29.7 mm
07:30 PM 71.6°F22.0°C 67.9°F19.9°C 88% 10.7 mph E17.2 kmh E 16.8 mph27.0 kmh 29.68 in1005.1 mb 0.00 in0.0 mm 0.00 in0.0 mm 1.17 in29.7 mm
07:35 PM 71.2°F21.8°C 67.5°F19.7°C 88% 11.4 mph E18.3 kmh E 16.8 mph27.0 kmh 29.68 in1005.1 mb 0.00 in0.0 mm 0.00 in0.0 mm 1.17 in29.7 mm
07:40 PM 70.9°F21.6°C 67.2°F19.6°C 88% 9.2 mph E14.8 kmh E 15.9 mph25.6 kmh 29.68 in1005.1 mb 0.00 in0.0 mm 0.00 in0.0 mm 1.17 in29.7 mm
07:45 PM 70.5°F21.4°C 66.8°F19.3°C 88% 6.9 mph E11.1 kmh E 15.9 mph25.6 kmh 29.69 in1005.4 mb 0.00 in0.0 mm 0.00 in0.0 mm 1.17 in29.7 mm
07:50 PM 70.3°F21.3°C 67.0°F19.4°C 89% 3.8 mph E6.1 kmh E 13.0 mph20.9 kmh 29.69 in1005.4 mb 0.00 in0.0 mm 0.00 in0.0 mm 1.17 in29.7 mm
07:55 PM 70.3°F21.3°C 67.0°F19.4°C 89% 6.0 mph E9.7 kmh E 10.7 mph17.2 kmh 29.68 in1005.1 mb 0.00 in0.0 mm 0.00 in0.0 mm 1.17 in29.7 mm
08:00 PM 70.2°F21.2°C 66.8°F19.3°C 89% 6.9 mph ESE11.1 kmh ESE 12.1 mph19.5 kmh 29.68 in1005.1 mb 0.00 in0.0 mm 0.00 in0.0 mm 1.17 in29.7 mm
08:05 PM 70.0°F21.1°C 66.6°F19.2°C 89% 6.0 mph SE9.7 kmh SE 12.1 mph19.5 kmh 29.68 in1005.1 mb 0.00 in0.0 mm 0.00 in0.0 mm 1.17 in29.7 mm
08:10 PM 70.0°F21.1°C 66.6°F19.2°C 89% 8.3 mph SE13.4 kmh SE 12.1 mph19.5 kmh 29.68 in1005.1 mb 0.00 in0.0 mm 0.00 in0.0 mm 1.17 in29.7 mm
08:15 PM 70.0°F21.1°C 66.9°F19.4°C 90% 9.8 mph SE15.8 kmh SE 13.6 mph21.9 kmh 29.68 in1005.1 mb 0.00 in0.0 mm 0.00 in0.0 mm 1.17 in29.7 mm
08:20 PM 70.2°F21.2°C 67.1°F19.5°C 90% 7.6 mph ESE12.2 kmh ESE 13.6 mph21.9 kmh 29.69 in1005.4 mb 0.00 in0.0 mm 0.00 in0.0 mm 1.17 in29.7 mm
08:25 PM 70.0°F21.1°C 66.6°F19.2°C 89% 4.5 mph E7.2 kmh E 12.1 mph19.5 kmh 29.69 in1005.4 mb 0.00 in0.0 mm 0.00 in0.0 mm 1.17 in29.7 mm
08:30 PM 70.2°F21.2°C 66.8°F19.3°C 89% 4.5 mph ENE7.2 kmh ENE 11.4 mph18.3 kmh 29.69 in1005.4 mb 0.00 in0.0 mm 0.00 in0.0 mm 1.17 in29.7 mm
08:35 PM 70.2°F21.2°C 66.8°F19.3°C 89% 6.9 mph E11.1 kmh E 9.2 mph14.8 kmh 29.70 in1005.8 mb 0.00 in0.0 mm 0.00 in0.0 mm 1.17 in29.7 mm
08:40 PM 70.2°F21.2°C 66.8°F19.3°C 89% 4.5 mph E7.2 kmh E 9.2 mph14.8 kmh 29.70 in1005.8 mb 0.00 in0.0 mm 0.00 in0.0 mm 1.17 in29.7 mm
08:45 PM 70.2°F21.2°C 66.8°F19.3°C 89% 5.4 mph NE8.7 kmh NE 9.2 mph14.8 kmh 29.70 in1005.8 mb 0.00 in0.0 mm 0.00 in0.0 mm 1.17 in29.7 mm
08:50 PM 70.2°F21.2°C 66.8°F19.3°C 89% 3.8 mph ENE6.1 kmh ENE 7.6 mph12.2 kmh 29.70 in1005.8 mb 0.00 in0.0 mm 0.00 in0.0 mm 1.17 in29.7 mm
08:55 PM 70.2°F21.2°C 66.8°F19.3°C 89% 4.5 mph ENE7.2 kmh ENE 7.6 mph12.2 kmh 29.71 in1006.1 mb 0.00 in0.0 mm 0.00 in0.0 mm 1.17 in29.7 mm
09:00 PM 70.2°F21.2°C 66.8°F19.3°C 89% 3.8 mph ENE6.1 kmh ENE 7.6 mph12.2 kmh 29.71 in1006.1 mb 0.00 in0.0 mm 0.00 in0.0 mm 1.17 in29.7 mm
09:05 PM 70.3°F21.3°C 67.0°F19.4°C 89% 3.1 mph ENE5.0 kmh ENE 7.6 mph12.2 kmh 29.72 in1006.4 mb 0.00 in0.0 mm 0.00 in0.0 mm 1.17 in29.7 mm
09:10 PM 70.2°F21.2°C 66.8°F19.3°C 89% 2.2 mph ENE3.5 kmh ENE 8.3 mph13.4 kmh 29.72 in1006.4 mb 0.00 in0.0 mm 0.00 in0.0 mm 1.17 in29.7 mm
09:15 PM 70.3°F21.3°C 67.0°F19.4°C 89% 2.2 mph NE3.5 kmh NE 8.3 mph13.4 kmh 29.73 in1006.8 mb 0.00 in0.0 mm 0.00 in0.0 mm 1.17 in29.7 mm
09:20 PM 70.3°F21.3°C 67.0°F19.4°C 89% 3.1 mph NE5.0 kmh NE 6.0 mph9.7 kmh 29.73 in1006.8 mb 0.00 in0.0 mm 0.00 in0.0 mm 1.17 in29.7 mm
09:25 PM 70.3°F21.3°C 67.0°F19.4°C 89% 3.1 mph NE5.0 kmh NE 6.0 mph9.7 kmh 29.75 in1007.5 mb 0.00 in0.0 mm 0.00 in0.0 mm 1.17 in29.7 mm
09:30 PM 70.3°F21.3°C 67.0°F19.4°C 89% 3.8 mph NE6.1 kmh NE 6.0 mph9.7 kmh 29.74 in1007.1 mb 0.00 in0.0 mm 0.00 in0.0 mm 1.17 in29.7 mm
09:35 PM 70.5°F21.4°C 67.2°F19.6°C 89% 3.1 mph NE5.0 kmh NE 6.0 mph9.7 kmh 29.74 in1007.1 mb 0.00 in0.0 mm 0.00 in0.0 mm 1.17 in29.7 mm
09:40 PM 70.3°F21.3°C 67.0°F19.4°C 89% 3.1 mph ENE5.0 kmh ENE 6.0 mph9.7 kmh 29.74 in1007.1 mb 0.00 in0.0 mm 0.00 in0.0 mm 1.17 in29.7 mm
09:45 PM 70.3°F21.3°C 67.0°F19.4°C 89% 3.1 mph ENE5.0 kmh ENE 6.0 mph9.7 kmh 29.74 in1007.1 mb 0.00 in0.0 mm 0.00 in0.0 mm 1.17 in29.7 mm
09:50 PM 70.3°F21.3°C 67.0°F19.4°C 89% 3.8 mph ENE6.1 kmh ENE 6.0 mph9.7 kmh 29.74 in1007.1 mb 0.00 in0.0 mm 0.00 in0.0 mm 1.17 in29.7 mm
09:55 PM 70.2°F21.2°C 66.5°F19.2°C 88% 3.8 mph E6.1 kmh E 7.6 mph12.2 kmh 29.73 in1006.8 mb 0.00 in0.0 mm 0.00 in0.0 mm 1.17 in29.7 mm
10:00 PM 70.3°F21.3°C 66.7°F19.3°C 88% 2.2 mph E3.5 kmh E 7.6 mph12.2 kmh 29.74 in1007.1 mb 0.00 in0.0 mm 0.00 in0.0 mm 1.17 in29.7 mm
10:05 PM 70.3°F21.3°C 66.7°F19.3°C 88% 2.2 mph ENE3.5 kmh ENE 6.0 mph9.7 kmh 29.75 in1007.5 mb 0.00 in0.0 mm 0.00 in0.0 mm 1.17 in29.7 mm
10:10 PM 70.2°F21.2°C 66.5°F19.2°C 88% 2.2 mph NE3.5 kmh NE 4.5 mph7.2 kmh 29.75 in1007.5 mb 0.00 in0.0 mm 0.00 in0.0 mm 1.17 in29.7 mm
10:15 PM 70.2°F21.2°C 66.5°F19.2°C 88% 3.1 mph NE5.0 kmh NE 4.5 mph7.2 kmh 29.75 in1007.5 mb 0.00 in0.0 mm 0.00 in0.0 mm 1.17 in29.7 mm
10:20 PM 70.2°F21.2°C 66.5°F19.2°C 88% 4.5 mph E7.2 kmh E 6.9 mph11.1 kmh 29.75 in1007.5 mb 0.00 in0.0 mm 0.00 in0.0 mm 1.17 in29.7 mm
10:25 PM 70.3°F21.3°C 66.7°F19.3°C 88% 1.6 mph E2.6 kmh E 6.9 mph11.1 kmh 29.75 in1007.5 mb 0.00 in0.0 mm 0.00 in0.0 mm 1.17 in29.7 mm
10:30 PM 70.2°F21.2°C 66.5°F19.2°C 88% 0.7 mph NE1.1 kmh NE 6.9 mph11.1 kmh 29.75 in1007.5 mb 0.00 in0.0 mm 0.00 in0.0 mm 1.17 in29.7 mm
10:35 PM 70.3°F21.3°C 66.7°F19.3°C 88% 3.1 mph E5.0 kmh E 5.4 mph8.7 kmh 29.76 in1007.8 mb 0.00 in0.0 mm 0.00 in0.0 mm 1.17 in29.7 mm
10:40 PM 70.5°F21.4°C 66.8°F19.3°C 88% 3.1 mph ESE5.0 kmh ESE 5.4 mph8.7 kmh 29.75 in1007.5 mb 0.00 in0.0 mm 0.00 in0.0 mm 1.17 in29.7 mm
10:45 PM 70.3°F21.3°C 66.7°F19.3°C 88% 3.8 mph ESE6.1 kmh ESE 6.0 mph9.7 kmh 29.75 in1007.5 mb 0.00 in0.0 mm 0.00 in0.0 mm 1.17 in29.7 mm
10:50 PM 70.3°F21.3°C 66.7°F19.3°C 88% 3.8 mph SE6.1 kmh SE 6.0 mph9.7 kmh 29.75 in1007.5 mb 0.00 in0.0 mm 0.00 in0.0 mm 1.17 in29.7 mm
10:55 PM 70.3°F21.3°C 66.7°F19.3°C 88% 3.1 mph SE5.0 kmh SE 6.9 mph11.1 kmh 29.75 in1007.5 mb 0.00 in0.0 mm 0.00 in0.0 mm 1.17 in29.7 mm
11:00 PM 70.3°F21.3°C 66.7°F19.3°C 88% 4.5 mph SE7.2 kmh SE 6.9 mph11.1 kmh 29.75 in1007.5 mb 0.00 in0.0 mm 0.00 in0.0 mm 1.17 in29.7 mm
11:05 PM 70.3°F21.3°C 66.7°F19.3°C 88% 4.5 mph SE7.2 kmh SE 6.9 mph11.1 kmh 29.75 in1007.5 mb 0.00 in0.0 mm 0.00 in0.0 mm 1.17 in29.7 mm
11:10 PM 70.2°F21.2°C 66.5°F19.2°C 88% 3.1 mph SE5.0 kmh SE 6.9 mph11.1 kmh 29.75 in1007.5 mb 0.00 in0.0 mm 0.00 in0.0 mm 1.17 in29.7 mm
11:15 PM 70.2°F21.2°C 66.5°F19.2°C 88% 4.5 mph SE7.2 kmh SE 6.9 mph11.1 kmh 29.75 in1007.5 mb 0.00 in0.0 mm 0.00 in0.0 mm 1.17 in29.7 mm
11:20 PM 70.3°F21.3°C 66.7°F19.3°C 88% 4.5 mph SE7.2 kmh SE 7.6 mph12.2 kmh 29.75 in1007.5 mb 0.00 in0.0 mm 0.00 in0.0 mm 1.17 in29.7 mm
11:25 PM 70.3°F21.3°C 66.7°F19.3°C 88% 4.5 mph SE7.2 kmh SE 8.3 mph13.4 kmh 29.75 in1007.5 mb 0.00 in0.0 mm 0.00 in0.0 mm 1.17 in29.7 mm
11:30 PM 70.3°F21.3°C 66.7°F19.3°C 88% 3.8 mph SE6.1 kmh SE 8.3 mph13.4 kmh 29.75 in1007.5 mb 0.00 in0.0 mm 0.00 in0.0 mm 1.17 in29.7 mm
11:35 PM 70.2°F21.2°C 66.5°F19.2°C 88% 3.1 mph ESE5.0 kmh ESE 6.9 mph11.1 kmh 29.75 in1007.5 mb 0.00 in0.0 mm 0.00 in0.0 mm 1.17 in29.7 mm
11:40 PM 70.3°F21.3°C 66.7°F19.3°C 88% 3.1 mph SE5.0 kmh SE 6.9 mph11.1 kmh 29.76 in1007.8 mb 0.00 in0.0 mm 0.00 in0.0 mm 1.17 in29.7 mm
11:45 PM 70.3°F21.3°C 67.0°F19.4°C 89% 5.4 mph ESE8.7 kmh ESE 6.9 mph11.1 kmh 29.76 in1007.8 mb 0.00 in0.0 mm 0.00 in0.0 mm 1.17 in29.7 mm
11:50 PM 70.5°F21.4°C 67.2°F19.6°C 89% 2.2 mph ESE3.5 kmh ESE 6.9 mph11.1 kmh 29.76 in1007.8 mb 0.00 in0.0 mm 0.00 in0.0 mm 1.17 in29.7 mm
11:55 PM 70.5°F21.4°C 67.2°F19.6°C 89% 3.8 mph E6.1 kmh E 6.9 mph11.1 kmh 29.75 in1007.5 mb 0.00 in0.0 mm 0.00 in0.0 mm 1.17 in29.7 mm